Time;durP1;ratioP1;P1;durP2;ratioP2;P2;SDS_P1;SDS_P2;PMS_P1;PMS_P2;Temp;Humidity;BMP_temperature;BMP_pressure;BME280_temperature;BME280_humidity;BME280_pressure;Samples;Min_cycle;Max_cycle;Signal;HPM_P1;HPM_P2
2023/02/16 00:00:40;;;;;;;72.05;43.35;;;6.10;99.90;;;;;;6161138;23;20328;-75
2023/02/16 00:03:13;;;;;;;70.82;43.60;;;6.10;99.90;;;;;;6186328;23;20041;-75
2023/02/16 00:05:39;;;;;;;67.18;43.40;;;6.10;99.90;;;;;;6187646;23;20016;-76
2023/02/16 00:08:04;;;;;;;69.00;43.65;;;6.10;99.90;;;;;;6187431;23;20005;-75
2023/02/16 00:10:35;;;;;;;66.30;42.42;;;6.10;99.90;;;;;;6187623;23;20051;-75
2023/02/16 00:15:46;;;;;;;67.80;41.28;;;6.20;99.90;;;;;;6187716;23;20347;-75
2023/02/16 00:18:20;;;;;;;72.88;42.22;;;6.30;99.90;;;;;;6185823;23;20421;-75
2023/02/16 00:20:47;;;;;;;71.68;44.47;;;6.20;99.90;;;;;;6160904;23;20005;-75
2023/02/16 00:23:13;;;;;;;69.00;41.65;;;6.20;99.90;;;;;;6187193;23;20009;-75
2023/02/16 00:25:39;;;;;;;66.40;42.47;;;6.10;99.90;;;;;;6185625;23;20185;-75
2023/02/16 00:28:14;;;;;;;68.07;42.90;;;6.10;99.90;;;;;;6160932;23;20013;-75
2023/02/16 00:30:40;;;;;;;69.03;43.17;;;6.00;99.90;;;;;;6186913;23;20020;-75
2023/02/16 00:33:24;;;;;;;70.07;43.95;;;6.10;99.90;;;;;;6185552;23;20342;-75
2023/02/16 00:35:50;;;;;;;66.70;40.97;;;6.10;99.90;;;;;;6187459;23;20012;-75
2023/02/16 00:38:15;;;;;;;66.13;40.90;;;6.10;99.90;;;;;;6186025;23;20068;-75
2023/02/16 00:40:41;;;;;;;68.75;43.80;;;6.00;99.90;;;;;;6187339;23;20017;-75
2023/02/16 00:43:08;;;;;;;66.22;41.92;;;5.90;99.90;;;;;;6160652;23;20496;-75
2023/02/16 00:45:36;;;;;;;72.30;42.85;;;6.00;99.90;;;;;;6187352;23;20342;-75
2023/02/16 00:48:02;;;;;;;72.97;44.25;;;6.00;99.90;;;;;;6186926;23;20016;-75
2023/02/16 00:50:33;;;;;;;72.53;43.83;;;5.90;99.90;;;;;;6185423;23;20013;-75
2023/02/16 00:52:59;;;;;;;;;;;5.90;99.90;;;;;;6185881;23;20020;-75
2023/02/16 00:55:33;;;;;;;69.55;42.25;;;5.80;99.90;;;;;;6160409;23;19919;-75
2023/02/16 00:58:21;;;;;;;68.35;42.40;;;5.70;99.90;;;;;;6187244;23;20036;-75
2023/02/16 01:00:53;;;;;;;68.00;42.90;;;5.80;99.90;;;;;;6185695;23;20019;-75
2023/02/16 01:03:23;;;;;;;76.82;43.88;;;5.80;99.90;;;;;;6185520;23;20052;-75
2023/02/16 01:11:06;;;;;;;70.45;44.63;;;5.80;99.90;;;;;;6160581;23;20013;-76
2023/02/16 01:11:19;;;;;;;67.38;43.83;;;5.80;99.90;;;;;;6185231;23;20021;-75
2023/02/16 01:13:48;;;;;;;70.47;43.15;;;5.80;99.90;;;;;;6160484;23;20147;-75
2023/02/16 01:16:20;;;;;;;68.53;43.70;;;5.70;99.90;;;;;;6186981;23;20327;-75
2023/02/16 01:18:47;;;;;;;68.70;43.97;;;5.70;99.90;;;;;;6160241;23;20120;-75
2023/02/16 01:21:12;;;;;;;70.32;44.58;;;5.80;99.90;;;;;;6185132;23;20020;-74
2023/02/16 01:23:38;;;;;;;67.10;43.42;;;5.80;99.90;;;;;;6160331;23;20009;-75
2023/02/16 01:26:10;;;;;;;72.78;45.15;;;5.70;99.90;;;;;;6185405;23;20009;-74
2023/02/16 01:28:36;;;;;;;67.68;45.05;;;5.70;99.90;;;;;;6184998;23;20320;-74
2023/02/16 01:31:02;;;;;;;73.30;45.33;;;5.80;99.90;;;;;;6159915;23;20017;-75
2023/02/16 01:33:27;;;;;;;72.70;44.55;;;5.80;99.90;;;;;;6185286;23;20020;-74
2023/02/16 01:35:54;;;;;;;71.25;44.60;;;5.70;99.90;;;;;;6186802;23;20377;-75
2023/02/16 01:38:23;;;;;;;76.65;44.58;;;5.70;99.90;;;;;;6186921;23;20040;-75
2023/02/16 01:41:21;;;;;;;73.28;46.03;;;5.70;99.90;;;;;;6186758;23;20370;-75
2023/02/16 01:43:54;;;;;;;76.82;45.03;;;5.60;99.90;;;;;;6186761;23;20012;-75
2023/02/16 01:46:34;;;;;;;71.10;45.00;;;5.50;99.90;;;;;;6185365;23;20009;-75
2023/02/16 01:49:00;;;;;;;71.32;45.28;;;5.50;99.90;;;;;;6185490;23;20013;-75
2023/02/16 01:51:41;;;;;;;73.45;46.63;;;5.40;99.90;;;;;;6160050;23;20343;-75
2023/02/16 01:54:48;;;;;;;73.53;46.53;;;5.50;99.90;;;;;;6186921;23;20009;-75
2023/02/16 01:57:49;;;;;;;69.03;44.97;;;5.40;99.90;;;;;;6140684;23;20009;-75
2023/02/16 02:00:27;;;;;;;75.70;46.75;;;5.30;99.90;;;;;;6159718;23;20055;-75
2023/02/16 02:05:49;;;;;;;75.00;46.13;;;5.40;99.90;;;;;;6184950;23;20017;-75
2023/02/16 02:08:31;;;;;;;71.15;43.72;;;5.40;99.90;;;;;;6160291;23;20024;-75
2023/02/16 02:11:10;;;;;;;69.18;44.45;;;5.50;99.90;;;;;;6184881;23;20019;-75
2023/02/16 02:13:55;;;;;;;72.93;45.67;;;5.60;99.90;;;;;;6186421;23;20013;-75
2023/02/16 02:16:23;;;;;;;74.55;46.95;;;5.60;99.90;;;;;;6184869;23;20041;-75
2023/02/16 02:18:49;;;;;;;71.10;45.50;;;5.60;99.90;;;;;;6184874;23;20009;-75
2023/02/16 02:24:51;;;;;;;69.13;44.85;;;5.60;99.90;;;;;;6186547;23;20025;-75
2023/02/16 02:27:39;;;;;;;74.15;45.50;;;5.60;99.90;;;;;;6186639;23;20021;-75
2023/02/16 02:30:37;;;;;;;76.68;47.15;;;5.50;99.90;;;;;;6186263;23;20020;-75
2023/02/16 02:33:27;;;;;;;72.40;45.50;;;5.50;99.90;;;;;;6160334;23;20067;-75
2023/02/16 02:35:53;;;;;;;;;;;5.40;99.90;;;;;;6187090;23;20012;-75
2023/02/16 02:38:41;;;;;;;74.68;44.95;;;5.50;99.90;;;;;;6184747;23;19954;-75
2023/02/16 02:41:17;;;;;;;75.05;46.05;;;5.40;99.90;;;;;;6186046;23;20442;-75
2023/02/16 02:43:55;;;;;;;74.35;46.25;;;5.40;99.90;;;;;;6159804;23;20009;-75
2023/02/16 02:46:30;;;;;;;69.80;46.72;;;5.40;99.90;;;;;;6184485;23;20020;-75
2023/02/16 02:48:56;;;;;;;74.88;47.97;;;5.20;99.90;;;;;;6184953;23;20020;-75
2023/02/16 02:51:28;;;;;;;75.40;47.85;;;5.10;99.90;;;;;;6186177;23;20013;-75
2023/02/16 03:03:05;;;;;;;77.32;47.33;;;5.00;99.90;;;;;;6124339;23;20018;-75
2023/02/16 03:05:33;;;;;;;79.65;48.17;;;5.00;99.90;;;;;;6100001;23;20057;-75
2023/02/16 03:08:13;;;;;;;73.07;47.58;;;5.10;99.90;;;;;;6099873;23;20025;-75
2023/02/16 03:13:36;;;;;;;76.22;45.53;;;5.10;99.90;;;;;;6101685;23;20049;-76
2023/02/16 03:16:22;;;;;;;78.88;48.85;;;5.10;99.90;;;;;;6126201;23;20579;-75
2023/02/16 03:30:10;;;;;;;77.93;49.78;;;5.00;99.90;;;;;;6143209;23;20027;-75
2023/02/16 03:32:37;;;;;;;81.72;49.17;;;5.10;99.90;;;;;;6185995;23;20096;-75
2023/02/16 03:35:03;;;;;;;77.47;47.92;;;5.10;99.90;;;;;;6186708;23;20009;-74
2023/02/16 03:37:29;;;;;;;83.32;52.20;;;5.10;99.90;;;;;;6186071;23;20013;-75
2023/02/16 03:42:38;;;;;;;79.30;48.38;;;5.20;99.90;;;;;;6186029;23;20025;-75
2023/02/16 03:45:04;;;;;;;79.15;49.13;;;5.30;99.90;;;;;;6186150;23;20071;-75
2023/02/16 03:47:30;;;;;;;77.15;50.13;;;5.30;99.90;;;;;;6187512;23;20017;-74
2023/02/16 03:49:56;;;;;;;78.97;49.58;;;5.30;99.90;;;;;;6187906;23;20051;-75
2023/02/16 03:52:21;;;;;;;81.07;46.63;;;5.40;99.90;;;;;;6161125;23;20020;-75
2023/02/16 03:54:47;;;;;;;82.20;50.50;;;5.50;99.90;;;;;;6186024;23;20009;-75
2023/02/16 03:57:12;;;;;;;82.80;50.75;;;5.50;99.90;;;;;;6187971;23;20020;-75
2023/02/16 03:59:38;;;;;;;73.85;49.33;;;5.50;99.90;;;;;;6186114;23;20008;-75
2023/02/16 04:02:04;;;;;;;82.63;50.88;;;5.50;99.90;;;;;;6187768;23;20117;-75
2023/02/16 04:04:29;;;;;;;83.18;50.38;;;5.50;99.90;;;;;;6187803;23;20017;-75
2023/02/16 04:06:55;;;;;;;81.65;51.03;;;5.60;99.90;;;;;;6185944;23;20017;-75
2023/02/16 04:09:21;;;;;;;79.53;52.40;;;5.60;99.90;;;;;;6186308;23;20334;-75
2023/02/16 04:14:30;;;;;;;81.25;50.40;;;5.60;99.90;;;;;;6185764;23;20446;-75
2023/02/16 04:16:56;;;;;;;80.15;52.08;;;5.60;99.90;;;;;;6187627;23;20016;-75
2023/02/16 04:19:23;;;;;;;82.15;51.25;;;5.60;99.90;;;;;;6161334;23;20017;-75
2023/02/16 04:21:51;;;;;;;84.32;52.42;;;5.60;99.90;;;;;;6185248;23;20512;-75
2023/02/16 04:24:17;;;;;;;81.20;51.47;;;5.50;99.90;;;;;;6186151;23;20009;-75
2023/02/16 04:26:44;;;;;;;82.07;50.38;;;5.50;99.90;;;;;;6185743;23;20473;-75
2023/02/16 04:29:10;;;;;;;82.03;51.28;;;5.50;99.90;;;;;;6185880;23;20092;-74
2023/02/16 04:31:36;;;;;;;82.97;51.75;;;5.50;99.90;;;;;;6185648;23;20044;-75
2023/02/16 04:34:01;;;;;;;82.68;51.95;;;5.50;99.90;;;;;;6185647;23;20017;-75
2023/02/16 04:36:27;;;;;;;83.18;55.60;;;5.60;99.90;;;;;;6185678;23;20015;-75
2023/02/16 04:38:52;;;;;;;81.07;50.40;;;5.60;99.90;;;;;;6187130;23;20013;-75
2023/02/16 04:41:18;;;;;;;81.72;51.55;;;5.60;99.90;;;;;;6185563;23;20063;-75
2023/02/16 04:43:44;;;;;;;80.53;50.90;;;5.60;99.90;;;;;;6185475;23;20024;-75
2023/02/16 04:46:09;;;;;;;79.30;51.67;;;5.60;99.90;;;;;;6186075;23;20342;-75
2023/02/16 04:48:35;;;;;;;81.57;49.00;;;5.60;99.90;;;;;;6160758;23;20017;-75
2023/02/16 04:51:03;;;;;;;84.35;52.67;;;5.60;99.90;;;;;;6185226;23;20438;-75
2023/02/16 04:53:28;;;;;;;83.45;52.45;;;5.60;99.90;;;;;;6185881;23;20020;-75
2023/02/16 04:55:54;;;;;;;83.57;53.47;;;5.60;99.90;;;;;;6185306;23;20020;-76
2023/02/16 04:58:20;;;;;;;89.32;54.35;;;5.60;99.90;;;;;;6184905;23;20009;-75
2023/02/16 05:00:46;;;;;;;87.07;53.00;;;5.60;99.90;;;;;;6185193;23;20009;-76
2023/02/16 05:03:11;;;;;;;79.35;53.55;;;5.50;99.90;;;;;;6185207;23;20046;-75
2023/02/16 05:05:37;;;;;;;82.18;52.50;;;5.50;99.90;;;;;;6185226;23;20013;-76
2023/02/16 05:08:03;;;;;;;85.32;53.42;;;5.60;99.90;;;;;;6187181;23;20013;-76
2023/02/16 05:10:28;;;;;;;87.57;53.25;;;5.60;99.90;;;;;;6185374;23;20016;-75
2023/02/16 05:15:38;;;;;;;87.40;57.05;;;5.50;99.90;;;;;;6185363;23;20016;-75
2023/02/16 05:18:04;;;;;;;93.07;55.88;;;5.60;99.90;;;;;;6160585;23;20167;-76
2023/02/16 05:21:29;;;;;;;82.90;51.72;;;5.60;99.90;;;;;;6187024;23;20009;-76
2023/02/16 05:23:15;;;;;;;86.20;52.53;;;5.50;99.90;;;;;;6186565;23;20025;-75
2023/02/16 05:25:40;;;;;;;89.22;53.58;;;5.50;99.90;;;;;;6186680;23;20088;-76
2023/02/16 05:28:06;;;;;;;88.90;54.58;;;5.60;99.90;;;;;;6160604;23;20017;-76
2023/02/16 05:30:32;;;;;;;89.70;55.10;;;5.60;99.90;;;;;;6185222;23;20021;-76
2023/02/16 05:32:58;;;;;;;90.78;57.22;;;5.50;99.90;;;;;;6184972;23;20021;-76
2023/02/16 05:35:23;;;;;;;85.97;54.72;;;5.50;99.90;;;;;;6185634;23;20071;-74
2023/02/16 05:37:49;;;;;;;86.50;53.42;;;5.50;99.90;;;;;;6160540;23;20016;-76
2023/02/16 05:40:15;;;;;;;89.45;54.92;;;5.50;99.90;;;;;;6160683;23;20393;-76
2023/02/16 05:42:40;;;;;;;89.78;55.67;;;5.50;99.90;;;;;;6186916;23;20338;-76
2023/02/16 05:45:07;;;;;;;87.32;53.80;;;5.60;99.90;;;;;;6184977;23;20044;-76
2023/02/16 05:47:32;;;;;;;85.47;53.25;;;5.60;99.90;;;;;;6186953;23;20008;-82
2023/02/16 05:49:58;;;;;;;87.60;53.55;;;5.60;99.90;;;;;;6185340;23;20132;-83
2023/02/16 05:52:23;;;;;;;89.78;55.67;;;5.60;99.90;;;;;;6184908;23;20017;-71
2023/02/16 05:54:49;;;;;;;87.18;54.97;;;5.60;99.90;;;;;;6160308;23;20017;-71
2023/02/16 05:57:14;;;;;;;85.35;55.42;;;5.60;99.90;;;;;;6186780;23;20013;-69
2023/02/16 05:59:40;;;;;;;87.22;55.83;;;5.60;99.90;;;;;;6186817;23;20013;-70
2023/02/16 06:02:08;;;;;;;87.85;54.80;;;5.60;99.90;;;;;;6184857;23;20032;-70
2023/02/16 06:04:34;;;;;;;86.78;54.45;;;5.70;99.90;;;;;;6184758;23;20063;-70
2023/02/16 06:07:00;;;;;;;87.10;53.25;;;5.60;99.90;;;;;;6184738;23;20017;-70
2023/02/16 06:09:26;;;;;;;85.03;55.15;;;5.70;99.90;;;;;;6186669;23;20016;-69
2023/02/16 06:11:51;;;;;;;84.22;53.75;;;5.60;99.90;;;;;;6184701;23;20334;-69
2023/02/16 06:14:19;;;;;;;84.82;53.50;;;5.70;99.90;;;;;;6184825;23;20076;-69
2023/02/16 06:16:47;;;;;;;84.00;54.53;;;5.70;99.90;;;;;;6184733;23;20087;-69
2023/02/16 06:19:14;;;;;;;86.95;55.05;;;5.70;99.90;;;;;;6159948;23;20040;-69
2023/02/16 06:21:41;;;;;;;87.65;56.05;;;5.80;99.90;;;;;;6184672;23;20523;-69
2023/02/16 06:24:08;;;;;;;87.22;54.25;;;5.80;99.90;;;;;;6185160;23;20448;-74
2023/02/16 06:26:34;;;;;;;84.53;53.42;;;5.70;99.90;;;;;;6185058;23;20013;-74
2023/02/16 06:29:00;;;;;;;83.00;53.70;;;5.80;99.90;;;;;;6185190;23;20051;-74
2023/02/16 06:31:26;;;;;;;85.70;54.50;;;5.80;99.90;;;;;;6185932;23;20013;-74
2023/02/16 06:33:53;;;;;;;85.78;52.88;;;5.80;99.90;;;;;;6186528;23;20009;-74
2023/02/16 06:36:19;;;;;;;85.25;54.75;;;5.80;99.90;;;;;;6184687;23;20435;-74
2023/02/16 06:38:45;;;;;;;82.80;55.05;;;5.80;99.90;;;;;;6186538;23;20013;-74
2023/02/16 06:41:11;;;;;;;81.50;52.05;;;5.70;99.90;;;;;;6184613;23;20084;-74
2023/02/16 06:43:36;;;;;;;86.47;58.75;;;5.80;99.90;;;;;;6186441;23;20032;-74
2023/02/16 06:46:02;;;;;;;88.05;55.35;;;5.80;99.90;;;;;;6187976;23;20009;-74
2023/02/16 06:48:28;;;;;;;81.15;53.08;;;5.80;99.90;;;;;;6187061;23;20048;-74
2023/02/16 06:50:54;;;;;;;85.25;54.22;;;5.80;99.90;;;;;;6188378;23;20009;-74
2023/02/16 06:53:24;;;;;;;89.75;56.40;;;5.80;99.90;;;;;;6186662;23;20024;-74
2023/02/16 06:55:50;;;;;;;;;;;5.80;99.90;;;;;;6188980;23;20137;-74
2023/02/16 06:58:16;;;;;;;87.82;55.05;;;5.80;99.90;;;;;;6186604;23;19952;-73
2023/02/16 07:00:41;;;;;;;87.47;56.40;;;5.80;99.90;;;;;;6188455;23;20013;-73
2023/02/16 07:03:07;;;;;;;84.50;53.45;;;5.70;99.90;;;;;;6186639;23;20021;-73
2023/02/16 07:05:32;;;;;;;85.22;54.55;;;5.80;99.90;;;;;;6186593;23;20308;-73
2023/02/16 07:07:58;;;;;;;84.65;54.50;;;5.80;99.90;;;;;;6161753;23;20021;-73
2023/02/16 07:10:24;;;;;;;84.75;54.38;;;5.90;99.90;;;;;;6188542;23;20063;-73
2023/02/16 07:12:49;;;;;;;81.18;54.35;;;5.80;99.90;;;;;;6186381;23;20350;-73
2023/02/16 07:15:15;;;;;;;84.57;54.72;;;5.90;99.90;;;;;;6188357;23;20013;-73
2023/02/16 07:17:40;;;;;;;84.40;54.17;;;5.80;99.90;;;;;;6188345;23;20013;-73
2023/02/16 07:20:06;;;;;;;81.80;53.45;;;5.80;99.90;;;;;;6161599;23;20084;-73
2023/02/16 07:22:32;;;;;;;85.32;55.10;;;5.90;99.90;;;;;;6161517;23;20088;-73
2023/02/16 07:24:59;;;;;;;85.03;54.55;;;5.90;99.90;;;;;;6188346;23;20044;-74
2023/02/16 07:27:25;;;;;;;83.35;54.45;;;5.80;99.90;;;;;;6161860;23;20017;-74
2023/02/16 07:29:51;;;;;;;82.53;52.80;;;5.90;99.90;;;;;;6186100;23;20021;-73
2023/02/16 07:32:17;;;;;;;82.90;56.17;;;6.00;99.90;;;;;;6188003;23;20020;-74
2023/02/16 07:34:44;;;;;;;85.28;53.83;;;6.00;99.90;;;;;;6186281;23;20342;-76
2023/02/16 07:37:10;;;;;;;80.13;53.22;;;6.00;99.90;;;;;;6186255;23;20020;-74
2023/02/16 07:39:36;;;;;;;84.50;52.67;;;6.10;99.90;;;;;;6186783;23;20009;-73
2023/02/16 07:42:02;;;;;;;87.53;54.83;;;6.00;99.90;;;;;;6186287;23;20508;-72
2023/02/16 07:44:27;;;;;;;83.90;55.10;;;6.10;99.90;;;;;;6188166;23;20382;-72
2023/02/16 07:46:53;;;;;;;81.78;53.55;;;6.10;99.90;;;;;;6161466;23;20044;-73
2023/02/16 07:49:19;;;;;;;81.75;53.13;;;6.00;99.90;;;;;;6187967;23;20020;-72
2023/02/16 07:51:44;;;;;;;80.47;52.80;;;6.10;99.90;;;;;;6161242;23;20111;-72
2023/02/16 07:54:10;;;;;;;83.57;53.70;;;6.20;99.90;;;;;;6188029;23;20020;-72
2023/02/16 07:56:36;;;;;;;78.90;52.30;;;6.20;99.90;;;;;;6186066;23;20017;-72
2023/02/16 07:59:02;;;;;;;78.60;51.35;;;6.20;99.90;;;;;;6187873;23;20006;-69
2023/02/16 08:01:29;;;;;;;82.03;52.78;;;6.20;99.90;;;;;;6186073;23;20045;-68
2023/02/16 08:03:55;;;;;;;83.72;55.00;;;6.30;99.90;;;;;;6187850;23;20063;-69
2023/02/16 08:06:21;;;;;;;83.53;55.30;;;6.30;99.90;;;;;;6185868;23;20436;-68
2023/02/16 08:08:46;;;;;;;81.80;53.72;;;6.20;99.90;;;;;;6187884;23;20016;-68
2023/02/16 08:11:23;;;;;;;82.18;55.50;;;6.30;99.90;;;;;;6161036;23;20013;-69
2023/02/16 08:13:50;;;;;;;75.72;51.50;;;6.30;99.90;;;;;;6187311;23;20450;-68
2023/02/16 08:16:18;;;;;;;82.80;55.47;;;6.30;99.90;;;;;;6185827;23;20009;-68
2023/02/16 08:18:44;;;;;;;84.18;54.08;;;6.30;99.90;;;;;;6185880;23;20058;-68
2023/02/16 08:21:16;;;;;;;80.65;53.58;;;6.40;99.90;;;;;;6185806;23;20351;-68
2023/02/16 08:23:46;;;;;;;81.97;53.13;;;6.50;99.90;;;;;;6186347;23;20013;-71
2023/02/16 08:26:16;;;;;;;86.90;56.40;;;6.50;99.90;;;;;;6187608;23;20020;-68
2023/02/16 08:28:45;;;;;;;85.15;57.22;;;6.50;99.90;;;;;;6186168;23;20009;-68
2023/02/16 08:31:16;;;;;;;82.80;54.80;;;6.50;99.90;;;;;;6185369;23;20071;-68
2023/02/16 08:33:42;;;;;;;86.22;54.10;;;6.50;99.90;;;;;;6185799;23;20018;-68
2023/02/16 08:36:17;;;;;;;82.97;55.72;;;6.40;99.90;;;;;;6187598;23;20005;-68
2023/02/16 08:38:42;;;;;;;81.88;51.83;;;6.50;99.90;;;;;;6187701;23;20020;-68
2023/02/16 08:41:08;;;;;;;81.28;54.55;;;6.50;99.90;;;;;;6185798;23;20013;-68
2023/02/16 08:43:34;;;;;;;83.93;53.85;;;6.40;99.90;;;;;;6187589;23;20304;-68
2023/02/16 08:45:59;;;;;;;83.90;55.65;;;6.50;99.90;;;;;;6187540;23;20008;-68
2023/02/16 08:48:27;;;;;;;84.93;55.60;;;6.50;99.90;;;;;;6186743;23;20021;-69
2023/02/16 08:50:53;;;;;;;81.45;55.25;;;6.50;99.90;;;;;;6187521;23;20088;-69
2023/02/16 08:53:22;;;;;;;84.40;55.00;;;6.50;99.90;;;;;;6187415;23;20063;-68
2023/02/16 08:55:55;;;;;;;78.68;52.72;;;6.60;99.90;;;;;;6187699;23;20017;-68
2023/02/16 08:58:21;;;;;;;84.05;55.30;;;6.50;99.90;;;;;;6187458;23;20024;-68
2023/02/16 09:00:48;;;;;;;86.30;53.92;;;6.60;99.90;;;;;;6187240;23;20083;-68
2023/02/16 09:03:18;;;;;;;83.35;54.25;;;6.60;99.90;;;;;;6185461;23;20013;-68
2023/02/16 09:05:45;;;;;;;85.35;55.80;;;6.60;99.90;;;;;;6185659;23;20028;-68
2023/02/16 09:08:11;;;;;;;82.93;55.55;;;6.50;99.90;;;;;;6185081;23;20017;-68
2023/02/16 09:10:37;;;;;;;83.80;55.53;;;6.60;99.90;;;;;;6185463;23;20084;-68
2023/02/16 09:13:04;;;;;;;86.70;56.08;;;6.50;99.90;;;;;;6185285;23;20048;-68
2023/02/16 09:15:30;;;;;;;84.55;55.33;;;6.60;99.90;;;;;;6187263;23;20055;-68
2023/02/16 09:17:56;;;;;;;83.47;57.15;;;6.60;99.90;;;;;;6187199;23;20009;-68
2023/02/16 09:20:22;;;;;;;83.95;54.00;;;6.50;99.90;;;;;;6186755;23;20422;-68
2023/02/16 09:22:48;;;;;;;86.32;55.95;;;6.50;99.90;;;;;;6185245;23;20450;-68
2023/02/16 09:25:15;;;;;;;86.95;55.28;;;6.50;99.90;;;;;;6187164;23;20312;-68
2023/02/16 09:27:42;;;;;;;87.72;59.80;;;6.50;99.90;;;;;;6187349;23;20017;-68
2023/02/16 09:30:08;;;;;;;85.72;55.80;;;6.60;99.90;;;;;;6186496;23;20334;-68
2023/02/16 09:32:35;;;;;;;86.03;56.35;;;6.50;99.90;;;;;;6185485;23;20017;-67
2023/02/16 09:35:01;;;;;;;87.55;58.80;;;6.60;99.90;;;;;;6185155;23;20095;-68
2023/02/16 09:37:27;;;;;;;84.78;55.42;;;6.60;99.90;;;;;;6185498;23;20083;-68
2023/02/16 09:39:53;;;;;;;84.07;56.60;;;6.60;99.90;;;;;;6185293;23;20021;-68
2023/02/16 09:42:32;;;;;;;84.40;56.47;;;6.70;99.90;;;;;;6187010;23;20013;-68
2023/02/16 09:45:12;;;;;;;84.50;54.78;;;6.60;99.90;;;;;;6185071;23;20013;-68
2023/02/16 09:47:42;;;;;;;88.72;58.95;;;6.70;99.90;;;;;;6187053;23;20013;-68
2023/02/16 09:50:24;;;;;;;86.88;58.13;;;6.60;99.90;;;;;;6185105;23;20044;-68
2023/02/16 09:53:03;;;;;;;86.13;56.75;;;6.60;99.90;;;;;;6184981;23;20088;-68
2023/02/16 09:55:48;;;;;;;87.40;57.28;;;6.60;99.90;;;;;;6187165;23;20013;-68
2023/02/16 09:58:20;;;;;;;91.32;57.72;;;6.70;99.90;;;;;;6185242;23;20039;-68
2023/02/16 10:01:16;;;;;;;89.78;57.67;;;6.70;99.90;;;;;;6185212;23;20044;-68
2023/02/16 10:03:44;;;;;;;88.43;57.92;;;6.70;99.90;;;;;;6185128;23;20024;-67
2023/02/16 10:06:22;;;;;;;90.72;59.30;;;6.70;99.90;;;;;;6186948;23;20020;-68
2023/02/16 10:08:54;;;;;;;87.38;56.97;;;6.80;99.90;;;;;;6186641;23;20071;-68
2023/02/16 10:11:37;;;;;;;86.07;58.15;;;6.80;99.90;;;;;;6186297;23;20075;-68
2023/02/16 10:14:33;;;;;;;90.45;59.45;;;6.90;99.90;;;;;;6184895;23;20024;-68
2023/02/16 10:17:09;;;;;;;90.47;58.58;;;6.90;99.90;;;;;;6160049;23;20013;-68
2023/02/16 10:19:47;;;;;;;92.03;58.20;;;7.00;99.90;;;;;;6185042;23;20009;-68
2023/02/16 10:22:19;;;;;;;88.88;58.38;;;6.90;99.90;;;;;;6184908;23;20021;-68
2023/02/16 10:25:18;;;;;;;88.25;59.17;;;7.00;99.90;;;;;;6160163;23;20017;-68
2023/02/16 10:27:52;;;;;;;87.50;58.40;;;7.00;99.90;;;;;;6185952;23;20017;-68
2023/02/16 10:30:20;;;;;;;96.72;61.75;;;7.10;99.90;;;;;;6186025;23;20024;-68
2023/02/16 10:33:01;;;;;;;91.68;61.45;;;7.20;99.90;;;;;;6186438;23;20009;-68
2023/02/16 10:35:46;;;;;;;91.82;59.03;;;7.20;99.90;;;;;;6185100;23;20048;-68
2023/02/16 10:38:41;;;;;;;95.97;63.78;;;7.40;99.90;;;;;;6186501;23;20051;-68
2023/02/16 10:41:31;;;;;;;96.13;64.10;;;7.30;99.90;;;;;;6186511;23;20005;-68
2023/02/16 10:44:01;;;;;;;96.28;62.88;;;7.30;99.90;;;;;;6186547;23;20133;-68
2023/02/16 10:46:40;;;;;;;97.13;63.15;;;7.30;99.90;;;;;;6186604;23;20399;-68
2023/02/16 10:49:10;;;;;;;94.70;61.33;;;7.30;99.90;;;;;;6184870;23;20024;-68
2023/02/16 10:51:39;;;;;;;99.68;64.18;;;7.40;99.90;;;;;;6185430;23;20450;-68
2023/02/16 10:54:17;;;;;;;96.43;62.38;;;7.40;99.90;;;;;;6186120;23;20087;-68
2023/02/16 10:57:12;;;;;;;96.22;62.22;;;7.30;99.90;;;;;;6187053;23;20016;-68
2023/02/16 10:59:44;;;;;;;95.15;62.35;;;7.40;99.90;;;;;;6186499;23;20109;-68
2023/02/16 11:02:27;;;;;;;98.25;63.47;;;7.40;99.90;;;;;;6186434;23;20041;-68
2023/02/16 11:04:55;;;;;;;95.85;60.75;;;7.50;99.90;;;;;;6184605;23;20164;-68
2023/02/16 11:07:25;;;;;;;102.75;67.60;;;7.30;99.90;;;;;;6186245;23;20009;-68
2023/02/16 11:09:53;;;;;;;98.20;63.83;;;7.30;99.90;;;;;;6186709;23;20060;-68
2023/02/16 11:12:38;;;;;;;102.95;68.60;;;7.40;99.90;;;;;;6185897;23;20084;-71
2023/02/16 11:15:04;;;;;;;106.95;68.75;;;7.20;99.90;;;;;;6186365;23;20064;-72
2023/02/16 11:17:46;;;;;;;103.57;68.63;;;7.30;99.90;;;;;;6186016;23;20350;-71
2023/02/16 11:20:44;;;;;;;107.28;68.53;;;7.20;99.90;;;;;;6184440;23;20013;-71
2023/02/16 11:23:30;;;;;;;106.18;67.97;;;7.30;99.90;;;;;;6165482;23;20405;-72
2023/02/16 11:26:14;;;;;;;106.10;70.13;;;7.20;99.90;;;;;;6186058;23;20040;-71
2023/02/16 11:28:44;;;;;;;111.55;67.82;;;7.30;99.90;;;;;;6184478;23;20439;-72
2023/02/16 11:31:24;;;;;;;107.68;64.80;;;7.40;99.90;;;;;;6184878;23;20045;-72
2023/02/16 11:33:58;;;;;;;;;;;7.30;99.90;;;;;;6188321;23;20084;-72
2023/02/16 11:36:39;;;;;;;106.78;68.97;;;7.40;99.90;;;;;;6186258;23;19912;-72
2023/02/16 11:39:10;;;;;;;108.82;67.50;;;7.40;99.90;;;;;;6186200;23;20040;-72
2023/02/16 11:41:37;;;;;;;127.22;72.38;;;7.40;99.90;;;;;;6186158;23;20068;-72
2023/02/16 11:44:03;;;;;;;101.65;68.10;;;7.50;99.90;;;;;;6186028;23;20016;-72
2023/02/16 11:46:38;;;;;;;119.50;73.72;;;7.50;99.90;;;;;;6186554;23;20091;-72
2023/02/16 11:49:29;;;;;;;120.60;72.20;;;7.40;99.90;;;;;;6187991;23;20005;-73
2023/02/16 11:51:55;;;;;;;113.85;70.15;;;7.50;99.90;;;;;;6186976;23;20323;-72
2023/02/16 11:54:22;;;;;;;105.85;69.47;;;7.40;99.90;;;;;;6161353;23;20017;-72
2023/02/16 11:57:14;;;;;;;114.72;71.78;;;7.60;99.90;;;;;;6186083;23;20020;-72
2023/02/16 11:59:40;;;;;;;115.78;71.05;;;7.50;99.90;;;;;;6187876;23;20338;-69
2023/02/16 12:02:43;;;;;;;107.25;71.97;;;7.70;99.90;;;;;;6186151;23;20027;-69
2023/02/16 12:05:18;;;;;;;110.05;69.93;;;7.60;99.90;;;;;;6186024;23;20096;-68
2023/02/16 12:07:47;;;;;;;111.57;69.70;;;7.60;99.90;;;;;;6161174;23;20031;-69
2023/02/16 12:10:57;;;;;;;112.60;70.10;;;7.60;99.90;;;;;;6186284;23;20021;-68
2023/02/16 12:13:57;;;;;;;113.82;71.15;;;7.80;99.90;;;;;;6172709;23;20098;-68
2023/02/16 12:16:31;;;;;;;114.33;68.83;;;7.70;99.90;;;;;;6188326;23;20024;-68
2023/02/16 12:19:21;;;;;;;110.75;73.57;;;7.60;99.90;;;;;;6186064;23;20027;-68
2023/02/16 12:21:51;;;;;;;112.20;70.78;;;7.70;99.90;;;;;;6185953;23;20017;-68
2023/02/16 12:24:39;;;;;;;116.72;69.45;;;7.80;99.90;;;;;;6187834;23;20107;-68
2023/02/16 12:28:00;;;;;;;102.68;65.82;;;7.90;99.90;;;;;;6187769;23;20009;-69
2023/02/16 12:30:57;;;;;;;102.95;66.57;;;8.00;99.90;;;;;;6035562;23;20041;-69
2023/02/16 12:33:55;;;;;;;108.38;68.03;;;8.00;99.90;;;;;;6043515;23;20464;-69
2023/02/16 12:36:27;;;;;;;107.60;67.55;;;8.00;99.90;;;;;;6044139;23;20135;-69
2023/02/16 12:39:09;;;;;;;108.82;67.03;;;8.00;99.90;;;;;;6067277;23;20441;-68
2023/02/16 12:41:48;;;;;;;108.95;68.05;;;8.10;99.90;;;;;;6067588;23;20025;-69
2023/02/16 12:44:32;;;;;;;98.93;67.32;;;8.30;99.90;;;;;;6067028;23;20368;-69
2023/02/16 12:47:04;;;;;;;101.40;64.80;;;8.50;99.90;;;;;;6067627;23;20322;-69
2023/02/16 12:50:00;;;;;;;96.18;64.80;;;8.60;99.90;;;;;;6043434;23;20015;-69
2023/02/16 12:52:41;;;;;;;95.65;61.83;;;8.80;99.90;;;;;;6043343;23;20046;-69
2023/02/16 12:55:25;;;;;;;91.30;62.47;;;8.90;99.90;;;;;;6067721;23;20019;-69
2023/02/16 12:58:17;;;;;;;86.53;59.03;;;9.00;99.90;;;;;;6019506;23;20440;-69
2023/02/16 13:00:51;;;;;;;83.22;58.58;;;9.20;99.90;;;;;;6062034;23;20011;-69
2023/02/16 13:03:35;;;;;;;79.50;53.70;;;9.30;99.90;;;;;;6043491;23;20015;-70
2023/02/16 13:06:07;;;;;;;79.60;57.47;;;9.60;99.90;;;;;;6136081;23;20016;-69
2023/02/16 13:09:01;;;;;;;81.18;55.55;;;9.50;99.90;;;;;;6186901;23;20434;-70
2023/02/16 13:11:59;;;;;;;84.57;56.92;;;9.80;99.90;;;;;;6187291;23;20046;-70
2023/02/16 13:14:29;;;;;;;79.97;58.53;;;10.10;99.90;;;;;;6141778;23;20013;-69
2023/02/16 13:17:03;;;;;;;71.28;54.22;;;10.90;99.90;;;;;;6187170;23;20311;-69
2023/02/16 13:19:29;;;;;;;66.53;49.40;;;11.40;99.90;;;;;;6187207;23;20009;-69
2023/02/16 13:22:36;;;;;;;67.32;47.75;;;11.90;99.90;;;;;;6187025;23;20013;-69
2023/02/16 13:25:25;;;;;;;60.53;44.55;;;11.90;99.90;;;;;;6185303;23;20449;-69
2023/02/16 13:28:23;;;;;;;60.78;46.35;;;11.30;99.90;;;;;;6185166;23;20438;-78
2023/02/16 13:30:54;;;;;;;63.78;46.22;;;11.10;99.90;;;;;;6186386;23;20017;-69
2023/02/16 13:33:51;;;;;;;61.22;44.13;;;10.90;99.90;;;;;;6186957;23;20093;-69
2023/02/16 13:36:35;;;;;;;60.65;44.58;;;10.70;99.90;;;;;;6185120;23;20013;-70
2023/02/16 13:39:19;;;;;;;59.65;44.15;;;10.90;99.90;;;;;;6184982;23;20096;-69
2023/02/16 13:42:07;;;;;;;56.70;44.33;;;10.90;99.90;;;;;;6185108;23;20332;-69
2023/02/16 13:44:41;;;;;;;57.13;42.63;;;11.00;99.90;;;;;;6184936;23;20044;-70